createdAt,value
2018-11-14T00:17:47.442Z,71.07
2018-11-14T00:20:16.818Z,71.04
2018-11-14T00:22:47.315Z,71.50
2018-11-14T00:25:16.680Z,70.85
2018-11-14T00:27:46.380Z,70.79
2018-11-14T00:30:20.079Z,70.66
2018-11-14T00:32:49.851Z,70.55
2018-11-14T00:35:19.742Z,70.90
2018-11-14T00:55:13.773Z,72.69
2018-11-14T00:57:44.892Z,72.77
2018-11-14T01:00:22.733Z,72.05
2018-11-14T01:02:52.520Z,72.85
2018-11-14T01:05:22.036Z,73.39
2018-11-14T01:07:51.733Z,72.70
2018-11-14T01:10:22.257Z,73.46
2018-11-14T01:12:52.318Z,73.83
2018-11-14T01:15:22.850Z,73.90
2018-11-14T01:17:52.530Z,73.12
2018-11-14T01:20:22.883Z,73.97
2018-11-14T01:22:52.500Z,73.86
2018-11-14T01:25:22.268Z,74.43
2018-11-14T01:27:51.871Z,74.49
2018-11-14T01:30:22.710Z,73.95
2018-11-14T01:32:52.920Z,73.78
2018-11-14T01:35:22.954Z,73.69
2018-11-14T01:37:52.706Z,73.50
2018-11-14T01:40:24.467Z,72.41
2018-11-14T01:42:55.365Z,72.36
2018-11-14T01:45:24.919Z,72.08
2018-11-14T01:47:54.861Z,72.31
2018-11-14T01:50:24.469Z,72.75
2018-11-14T01:52:54.273Z,73.78
2018-11-14T02:12:46.754Z,74.09
2018-11-14T02:15:18.925Z,74.06
2018-11-14T02:17:48.629Z,73.60
2018-11-14T02:20:18.055Z,72.95
2018-11-14T02:40:11.674Z,72.87
2018-11-14T03:00:03.406Z,72.90
2018-11-14T03:02:32.881Z,73.47
2018-11-14T03:05:02.530Z,72.57
2018-11-14T03:07:32.301Z,72.37
2018-11-14T03:10:02.225Z,72.65
2018-11-14T03:29:53.993Z,73.80
2018-11-14T03:32:24.125Z,73.10
2018-11-14T03:34:53.889Z,73.42
2018-11-14T03:37:23.699Z,74.24
2018-11-14T03:39:53.271Z,74.35
2018-11-14T03:59:44.347Z,74.29
2018-11-14T04:02:14.026Z,73.55
2018-11-14T04:04:43.459Z,73.52
2018-11-14T04:07:12.915Z,72.85
2018-11-14T04:09:42.505Z,72.16
2018-11-14T04:12:11.912Z,72.55
2018-11-14T04:14:42.008Z,72.36
2018-11-14T04:17:11.697Z,72.03
2018-11-14T04:19:41.208Z,72.10
2018-11-14T04:22:11.065Z,72.12
2018-11-14T04:24:40.548Z,72.35
2018-11-14T04:27:10.026Z,71.77
2018-11-14T04:47:01.275Z,72.60
2018-11-14T04:49:30.890Z,71.98
2018-11-14T04:52:00.840Z,72.10
2018-11-14T04:54:30.554Z,72.00
2018-11-14T04:57:00.279Z,71.74
2018-11-14T04:59:30.080Z,72.38
2018-11-14T05:01:59.594Z,72.52
2018-11-14T05:04:29.561Z,72.09
2018-11-14T05:06:59.006Z,72.01
2018-11-14T05:09:28.892Z,72.23
2018-11-14T05:11:58.550Z,72.88
2018-11-14T05:14:28.373Z,73.06
2018-11-14T05:16:57.907Z,73.19
2018-11-14T05:19:27.529Z,72.13
2018-11-14T05:21:57.327Z,73.17
2018-11-14T05:41:49.375Z,73.10
2018-11-14T05:44:19.353Z,71.88
2018-11-14T05:46:48.857Z,72.49
2018-11-14T05:49:18.431Z,71.84
2018-11-14T06:09:12.493Z,73.48
2018-11-14T06:11:42.191Z,73.03
2018-11-14T06:14:11.865Z,71.98
2018-11-14T06:16:41.767Z,71.67
2018-11-14T06:19:11.401Z,71.38
2018-11-14T06:21:41.478Z,70.91
2018-11-14T06:24:11.100Z,70.57
2018-11-14T06:26:41.131Z,70.34
2018-11-14T06:29:10.523Z,70.68
2018-11-14T06:31:39.933Z,70.55
2018-11-14T06:51:31.521Z,70.68
2018-11-14T06:54:01.078Z,71.05
2018-11-14T06:56:30.764Z,70.30
2018-11-14T06:59:00.510Z,70.33
2018-11-14T07:01:30.228Z,70.65
2018-11-14T07:03:59.927Z,70.66
2018-11-14T07:06:30.733Z,70.10
2018-11-14T07:09:00.557Z,70.03
2018-11-14T07:11:30.097Z,69.75
2018-11-14T07:13:59.973Z,69.15
2018-11-14T07:16:29.803Z,68.82
2018-11-14T07:18:59.495Z,68.94
2018-11-14T07:21:29.322Z,68.62
2018-11-14T07:23:59.225Z,68.29
2018-11-14T07:43:51.889Z,67.02
2018-11-14T07:46:21.730Z,66.99
2018-11-14T07:48:52.270Z,67.39
2018-11-14T07:51:21.947Z,66.76
2018-11-14T08:11:13.705Z,65.52
2018-11-14T08:13:44.727Z,64.72
2018-11-14T08:16:14.621Z,64.57
2018-11-14T08:18:44.483Z,63.78
2018-11-14T08:21:13.982Z,63.51
2018-11-14T08:23:43.697Z,63.01
2018-11-14T08:26:13.366Z,62.55
2018-11-14T08:28:43.314Z,62.06
2018-11-14T08:31:13.198Z,61.98
2018-11-14T08:33:42.870Z,62.56
2018-11-14T08:36:12.617Z,63.14
2018-11-14T08:38:42.281Z,63.19
2018-11-14T08:41:12.219Z,63.62
2018-11-14T08:43:41.750Z,63.50
2018-11-14T08:46:11.312Z,63.52
2018-11-14T08:48:41.088Z,63.35
2018-11-14T08:51:10.801Z,63.03
2018-11-14T09:11:03.210Z,63.64
2018-11-14T09:13:33.058Z,63.77
2018-11-14T09:16:03.107Z,63.45
2018-11-14T09:18:32.726Z,63.61
2018-11-14T09:21:02.350Z,63.69
2018-11-14T09:23:31.816Z,63.83
2018-11-14T09:26:01.433Z,63.55
2018-11-14T09:45:53.938Z,62.98
2018-11-14T09:48:23.671Z,62.90
2018-11-14T09:50:53.555Z,63.15
2018-11-14T09:53:23.111Z,62.67
2018-11-14T09:55:52.918Z,63.04
2018-11-14T09:58:22.459Z,63.33
2018-11-14T10:00:52.170Z,63.34
2018-11-14T10:03:21.707Z,63.14
2018-11-14T10:05:51.272Z,63.43
2018-11-14T10:08:21.290Z,63.25
2018-11-14T10:10:50.979Z,62.72
2018-11-14T10:13:20.698Z,62.92
2018-11-14T10:15:50.848Z,62.91
2018-11-14T10:18:20.663Z,63.17
2018-11-14T10:20:50.420Z,62.60
2018-11-14T10:40:43.325Z,63.66
2018-11-14T10:43:13.189Z,63.35
2018-11-14T10:45:42.827Z,63.56
2018-11-14T10:48:12.439Z,63.55
2018-11-14T10:50:42.185Z,63.30
2018-11-14T10:53:11.768Z,64.19
2018-11-14T10:55:41.562Z,63.97
2018-11-14T10:58:11.354Z,64.13
2018-11-14T11:32:32.829Z,64.76
2018-11-14T11:35:02.591Z,64.29
2018-11-14T11:37:32.257Z,64.50
2018-11-14T11:40:02.027Z,65.13
2018-11-14T11:42:31.805Z,64.66
2018-11-14T11:45:01.669Z,65.01
2018-11-14T11:47:31.685Z,65.53
2018-11-14T11:50:01.473Z,65.53
2018-11-14T11:52:31.008Z,66.34
2018-11-14T11:55:00.684Z,66.23
2018-11-14T11:57:30.153Z,66.06
2018-11-14T12:00:00.339Z,66.63
2018-11-14T12:02:30.078Z,66.04
2018-11-14T12:22:22.061Z,68.13
2018-11-14T12:24:51.745Z,68.38
2018-11-14T12:27:21.426Z,68.29
2018-11-14T12:29:51.029Z,68.80
2018-11-14T12:49:43.488Z,70.67
2018-11-14T12:52:13.766Z,71.22
2018-11-14T12:54:43.418Z,71.25
2018-11-14T12:57:13.228Z,71.88
2018-11-14T12:59:43.041Z,72.11
2018-11-14T13:02:12.804Z,71.77
2018-11-14T13:04:42.218Z,72.03
2018-11-14T13:07:11.817Z,72.57
2018-11-14T13:09:41.702Z,72.09
2018-11-14T13:12:11.450Z,72.75
2018-11-14T13:14:41.175Z,72.85
2018-11-14T13:17:10.855Z,72.76
2018-11-14T13:19:40.454Z,72.92
2018-11-14T13:22:09.974Z,73.46
2018-11-14T13:24:39.689Z,73.67
2018-11-14T13:27:09.182Z,73.51
2018-11-14T13:29:38.870Z,73.95
2018-11-14T13:32:08.803Z,74.02
2018-11-14T13:34:38.767Z,74.11
2018-11-14T13:37:08.496Z,73.83
2018-11-14T13:39:38.257Z,73.90
2018-11-14T13:42:07.795Z,73.87
2018-11-14T13:44:37.501Z,74.07
2018-11-14T13:47:07.590Z,73.86
2018-11-14T13:49:37.424Z,74.47
2018-11-14T13:52:06.882Z,74.44
2018-11-14T13:54:36.399Z,74.61
2018-11-14T13:57:06.003Z,74.84
2018-11-14T13:59:35.982Z,74.04
2018-11-14T14:02:05.985Z,74.34
2018-11-14T14:04:35.555Z,73.95
2018-11-14T14:24:27.456Z,74.08
2018-11-14T14:44:18.949Z,73.63
2018-11-14T14:46:49.072Z,73.03
2018-11-14T15:06:40.958Z,71.32
2018-11-14T15:09:11.196Z,70.68
2018-11-14T15:11:40.975Z,71.25
2018-11-14T15:14:10.849Z,70.51
2018-11-14T15:34:02.960Z,69.67
2018-11-14T15:36:32.819Z,69.84
2018-11-14T15:39:02.710Z,69.67
2018-11-14T15:53:07.514Z,70.60
2018-11-14T15:55:37.207Z,70.66
2018-11-14T15:58:07.598Z,70.29
2018-11-14T16:00:37.494Z,70.33
2018-11-14T16:03:07.308Z,70.47
2018-11-14T16:05:37.155Z,70.08
2018-11-14T16:08:06.855Z,69.91
2018-11-14T16:10:36.625Z,70.30
2018-11-14T16:13:06.354Z,70.21
2018-11-14T16:15:37.159Z,70.03
2018-11-14T16:18:06.952Z,69.89
2018-11-14T16:20:36.786Z,70.22
2018-11-14T16:23:06.408Z,70.37
2018-11-14T16:25:36.081Z,70.10
2018-11-14T16:28:06.089Z,70.38
2018-11-14T16:30:36.977Z,70.24
2018-11-14T16:33:07.668Z,70.35
2018-11-14T16:35:38.167Z,70.12
2018-11-14T16:38:08.253Z,70.31
2018-11-14T16:40:37.738Z,70.46
2018-11-14T16:43:08.497Z,69.88
2018-11-14T16:45:38.339Z,69.84
2018-11-14T16:48:07.885Z,69.32
2018-11-14T16:50:38.010Z,69.24
2018-11-14T16:53:07.819Z,69.32
2018-11-14T16:55:37.708Z,69.17
2018-11-14T16:58:07.245Z,70.08
2018-11-14T17:00:37.011Z,68.96
2018-11-14T17:03:06.487Z,68.21
2018-11-14T17:05:35.923Z,68.12
2018-11-14T17:08:05.918Z,67.50
2018-11-14T17:10:35.767Z,67.84
2018-11-14T17:13:05.733Z,67.55
2018-11-14T17:15:35.598Z,67.41
2018-11-14T17:18:05.180Z,67.45
2018-11-14T17:20:34.916Z,67.30
2018-11-14T17:23:04.675Z,66.90
2018-11-14T17:25:34.460Z,67.18
2018-11-14T17:28:04.470Z,67.11
2018-11-14T17:30:34.206Z,66.96
2018-11-14T17:33:03.980Z,66.65
2018-11-14T17:35:33.684Z,66.55
2018-11-14T17:38:03.390Z,66.83
2018-11-14T17:40:33.099Z,66.58
2018-11-14T17:43:02.960Z,66.51
2018-11-14T17:45:32.897Z,66.32
2018-11-14T17:48:02.522Z,65.48
2018-11-14T17:50:33.908Z,65.93
2018-11-14T17:53:04.294Z,65.86
2018-11-14T17:55:34.128Z,65.61
2018-11-14T17:58:04.042Z,65.63
2018-11-14T18:00:33.928Z,65.47
2018-11-14T18:03:04.084Z,65.07
2018-11-14T18:05:33.653Z,65.16
2018-11-14T18:08:06.073Z,64.92
2018-11-14T18:10:36.269Z,66.16
2018-11-14T18:13:05.901Z,65.07
2018-11-14T18:15:35.661Z,65.13
2018-11-14T18:18:05.233Z,64.59
2018-11-14T18:20:35.129Z,65.14
2018-11-14T18:23:04.910Z,65.04
2018-11-14T18:25:34.927Z,65.41
2018-11-14T18:28:05.247Z,65.60
2018-11-14T18:30:35.151Z,65.79
2018-11-14T18:33:04.890Z,65.34
2018-11-14T18:35:34.897Z,65.66
2018-11-14T18:38:04.368Z,65.59
2018-11-14T18:40:35.230Z,65.18
2018-11-14T18:43:05.286Z,65.20
2018-11-14T18:45:36.027Z,64.90
2018-11-14T18:48:06.313Z,64.83
2018-11-14T18:50:36.120Z,65.05
2018-11-14T18:53:05.760Z,65.30
2018-11-14T18:55:36.008Z,65.11
2018-11-14T18:58:06.647Z,65.31
2018-11-14T19:00:36.734Z,64.83
2018-11-14T19:03:06.491Z,64.83
2018-11-14T19:05:36.092Z,65.26
2018-11-14T19:08:06.100Z,65.02
2018-11-14T19:10:36.063Z,65.03
2018-11-14T19:13:05.886Z,65.59
2018-11-14T19:15:37.188Z,65.07
2018-11-14T19:18:07.153Z,65.50
2018-11-14T19:20:37.057Z,64.74
2018-11-14T19:23:07.073Z,64.64
2018-11-14T19:25:37.813Z,64.85
2018-11-14T19:28:07.745Z,65.14
2018-11-14T19:30:38.134Z,64.63
2018-11-14T19:33:08.082Z,64.74
2018-11-14T19:35:37.586Z,64.84
2018-11-14T19:38:07.509Z,65.24
2018-11-14T19:40:37.769Z,65.22
2018-11-14T19:43:09.157Z,64.84
2018-11-14T19:45:39.658Z,64.88
2018-11-14T19:48:09.479Z,64.90
2018-11-14T19:50:39.236Z,64.67
2018-11-14T19:53:08.929Z,64.79
2018-11-14T19:55:38.617Z,65.18
2018-11-14T19:58:08.315Z,65.42
2018-11-14T20:00:39.447Z,64.87
2018-11-14T20:03:09.667Z,65.30
2018-11-14T20:05:39.344Z,65.08
2018-11-14T20:08:08.949Z,64.98
2018-11-14T20:10:38.443Z,65.21
2018-11-14T20:13:08.112Z,65.07
2018-11-14T20:15:38.423Z,65.46
2018-11-14T20:18:08.401Z,65.33
2018-11-14T20:20:39.601Z,65.70
2018-11-14T20:23:09.309Z,65.53
2018-11-14T20:25:39.061Z,65.49
2018-11-14T20:28:08.697Z,66.01
2018-11-14T20:30:39.499Z,66.13
2018-11-14T20:33:11.574Z,65.92
2018-11-14T20:35:41.324Z,65.71
2018-11-14T20:38:11.165Z,66.07
2018-11-14T20:40:42.037Z,66.18
2018-11-14T20:43:12.173Z,65.77
2018-11-14T20:45:41.647Z,66.18
2018-11-14T20:48:11.369Z,66.74
2018-11-14T20:50:41.042Z,66.16
2018-11-14T20:53:11.091Z,66.10
2018-11-14T20:55:40.794Z,66.35
2018-11-14T20:58:10.237Z,66.28
2018-11-14T21:00:40.087Z,66.38
2018-11-14T21:03:09.965Z,66.54
2018-11-14T21:05:39.583Z,66.26
2018-11-14T21:08:09.104Z,66.45
2018-11-14T21:10:38.800Z,66.07
2018-11-14T21:13:08.566Z,66.17
2018-11-14T21:15:39.349Z,66.70
2018-11-14T21:18:09.335Z,66.50
2018-11-14T21:20:39.129Z,66.92
2018-11-14T21:23:08.671Z,66.42
2018-11-14T21:25:38.057Z,66.74
2018-11-14T21:28:07.574Z,67.23
2018-11-14T21:30:37.109Z,67.02
2018-11-14T21:33:07.301Z,66.83
2018-11-14T21:35:37.755Z,67.05
2018-11-14T21:38:08.739Z,66.40
2018-11-14T21:40:38.123Z,66.97
2018-11-14T21:43:07.723Z,67.15
2018-11-14T21:45:37.386Z,67.31
2018-11-14T21:48:16.382Z,67.07
2018-11-14T21:50:46.673Z,67.07
2018-11-14T21:53:16.138Z,67.24
2018-11-14T21:55:45.991Z,67.02
2018-11-14T21:58:15.549Z,67.12
2018-11-14T22:00:45.249Z,67.90
2018-11-14T22:03:14.657Z,67.69
2018-11-14T22:05:44.291Z,67.94
2018-11-14T22:08:14.051Z,67.24
2018-11-14T22:10:43.640Z,67.99
2018-11-14T22:13:13.358Z,67.56
2018-11-14T22:15:43.210Z,67.30
2018-11-14T22:18:12.947Z,67.94
2018-11-14T22:20:42.734Z,67.70
2018-11-14T22:23:12.461Z,67.62
2018-11-14T22:25:42.141Z,67.34
2018-11-14T22:28:12.040Z,68.29
2018-11-14T22:30:41.771Z,67.82
2018-11-14T22:33:11.513Z,67.83
2018-11-14T22:35:41.415Z,67.75
2018-11-14T22:38:11.257Z,68.31
2018-11-14T22:40:40.686Z,68.41
2018-11-14T22:43:10.457Z,68.40
2018-11-14T22:45:40.165Z,68.24
2018-11-14T22:48:09.849Z,68.15
2018-11-14T22:50:39.457Z,67.99
2018-11-14T22:53:08.937Z,68.17
2018-11-14T22:55:38.601Z,68.16
2018-11-14T22:58:08.487Z,68.81
2018-11-14T23:00:43.181Z,68.13
2018-11-14T23:03:12.682Z,68.56
2018-11-14T23:05:42.162Z,68.52
2018-11-14T23:08:12.081Z,68.48
2018-11-14T23:10:41.713Z,68.60
2018-11-14T23:13:11.583Z,68.67
2018-11-14T23:15:41.409Z,68.58
2018-11-14T23:18:10.840Z,68.21
2018-11-14T23:20:40.485Z,68.30
2018-11-14T23:23:10.253Z,68.64
2018-11-14T23:25:39.911Z,68.26
2018-11-14T23:28:09.629Z,68.71
2018-11-14T23:30:39.231Z,68.60
2018-11-14T23:33:09.213Z,68.27
2018-11-14T23:35:38.871Z,68.44
2018-11-14T23:38:08.587Z,68.42
2018-11-14T23:40:38.165Z,68.60
2018-11-14T23:43:07.884Z,68.69
2018-11-14T23:45:37.461Z,68.69
2018-11-14T23:48:07.413Z,69.02
2018-11-14T23:50:37.025Z,68.31
2018-11-14T23:53:06.926Z,68.92
2018-11-14T23:55:36.541Z,68.93
2018-11-14T23:58:06.698Z,68.93
